Terminal Aerodrome Forecast
Issued by NWS New Orleans/Baton Rouge, LA

Home | Current Version | Previous Version | Text Only | Print | Product List | Glossary On
Versions: 1 2 3 4 5 6 7 8 9 10 11 12 13 14
000
FTUS44 KLIX 281100
TAFBTR
TAF
KBTR 281120Z 2812/2912 05004KT P6SM SCT250
     FM281700 12005KT P6SM BKN050 BKN250
     FM290300 00000KT P6SM BKN090 BKN250=

USA.gov is the U.S. government's official web portal to all federal, state and local government web resources and services.